sensor_id;sensor_type;location;lat;lon;timestamp;P1;durP1;ratioP1;P2;durP2;ratioP2
68803;SDS011;55787;52.678;13.314;2022-11-25T00:01:06;59.08;;;20.90;;
68803;SDS011;55787;52.678;13.314;2022-11-25T00:03:34;51.78;;;19.02;;
68803;SDS011;55787;52.678;13.314;2022-11-25T00:06:44;53.83;;;19.47;;
68803;SDS011;55787;52.678;13.314;2022-11-25T00:08:54;51.25;;;18.70;;
68803;SDS011;55787;52.678;13.314;2022-11-25T00:11:21;48.13;;;18.02;;
68803;SDS011;55787;52.678;13.314;2022-11-25T00:13:48;53.70;;;18.13;;
68803;SDS011;55787;52.678;13.314;2022-11-25T00:16:16;52.03;;;18.77;;
68803;SDS011;55787;52.678;13.314;2022-11-25T00:18:46;55.90;;;18.87;;
68803;SDS011;55787;52.678;13.314;2022-11-25T00:21:15;53.30;;;18.20;;
68803;SDS011;55787;52.678;13.314;2022-11-25T00:23:49;53.15;;;18.30;;
68803;SDS011;55787;52.678;13.314;2022-11-25T00:26:24;49.88;;;17.77;;
68803;SDS011;55787;52.678;13.314;2022-11-25T00:28:52;52.47;;;18.27;;
68803;SDS011;55787;52.678;13.314;2022-11-25T00:31:20;49.77;;;18.53;;
68803;SDS011;55787;52.678;13.314;2022-11-25T00:33:49;50.47;;;17.50;;
68803;SDS011;55787;52.678;13.314;2022-11-25T00:36:23;50.85;;;18.48;;
68803;SDS011;55787;52.678;13.314;2022-11-25T00:38:55;53.30;;;19.52;;
68803;SDS011;55787;52.678;13.314;2022-11-25T00:41:23;52.92;;;18.33;;
68803;SDS011;55787;52.678;13.314;2022-11-25T00:44:10;51.33;;;18.53;;
68803;SDS011;55787;52.678;13.314;2022-11-25T00:46:57;53.38;;;17.83;;
68803;SDS011;55787;52.678;13.314;2022-11-25T00:49:24;54.38;;;18.95;;
68803;SDS011;55787;52.678;13.314;2022-11-25T00:51:50;52.28;;;18.35;;
68803;SDS011;55787;52.678;13.314;2022-11-25T00:54:17;53.92;;;18.77;;
68803;SDS011;55787;52.678;13.314;2022-11-25T00:56:44;51.90;;;18.60;;
68803;SDS011;55787;52.678;13.314;2022-11-25T00:59:11;53.35;;;18.40;;
68803;SDS011;55787;52.678;13.314;2022-11-25T01:01:38;52.53;;;18.65;;
68803;SDS011;55787;52.678;13.314;2022-11-25T01:04:05;51.72;;;18.77;;
68803;SDS011;55787;52.678;13.314;2022-11-25T01:06:32;51.13;;;18.65;;
68803;SDS011;55787;52.678;13.314;2022-11-25T01:09:00;50.93;;;19.03;;
68803;SDS011;55787;52.678;13.314;2022-11-25T01:11:27;54.17;;;20.13;;
68803;SDS011;55787;52.678;13.314;2022-11-25T01:13:54;49.65;;;17.60;;
68803;SDS011;55787;52.678;13.314;2022-11-25T01:16:27;47.85;;;17.95;;
68803;SDS011;55787;52.678;13.314;2022-11-25T01:18:54;54.53;;;18.83;;
68803;SDS011;55787;52.678;13.314;2022-11-25T01:21:22;48.47;;;18.20;;
68803;SDS011;55787;52.678;13.314;2022-11-25T01:23:50;53.42;;;18.73;;
68803;SDS011;55787;52.678;13.314;2022-11-25T01:26:21;56.35;;;20.20;;
68803;SDS011;55787;52.678;13.314;2022-11-25T01:28:52;51.97;;;18.48;;
68803;SDS011;55787;52.678;13.314;2022-11-25T01:31:23;60.75;;;19.77;;
68803;SDS011;55787;52.678;13.314;2022-11-25T01:33:55;50.70;;;18.23;;
68803;SDS011;55787;52.678;13.314;2022-11-25T01:36:28;56.60;;;19.30;;
68803;SDS011;55787;52.678;13.314;2022-11-25T01:38:56;57.70;;;19.17;;
68803;SDS011;55787;52.678;13.314;2022-11-25T01:41:25;51.13;;;17.85;;
68803;SDS011;55787;52.678;13.314;2022-11-25T01:44:01;53.47;;;18.40;;
68803;SDS011;55787;52.678;13.314;2022-11-25T01:46:45;59.87;;;18.80;;
68803;SDS011;55787;52.678;13.314;2022-11-25T01:49:20;48.25;;;17.27;;
68803;SDS011;55787;52.678;13.314;2022-11-25T01:54:45;51.20;;;17.73;;
68803;SDS011;55787;52.678;13.314;2022-11-25T01:57:48;54.95;;;18.48;;
68803;SDS011;55787;52.678;13.314;2022-11-25T02:00:21;49.77;;;17.23;;
68803;SDS011;55787;52.678;13.314;2022-11-25T02:02:48;52.67;;;18.42;;
68803;SDS011;55787;52.678;13.314;2022-11-25T02:05:18;54.88;;;17.42;;
68803;SDS011;55787;52.678;13.314;2022-11-25T02:07:48;46.45;;;16.30;;
68803;SDS011;55787;52.678;13.314;2022-11-25T02:10:20;46.00;;;16.70;;
68803;SDS011;55787;52.678;13.314;2022-11-25T02:12:50;52.27;;;18.37;;
68803;SDS011;55787;52.678;13.314;2022-11-25T02:15:18;51.67;;;17.25;;
68803;SDS011;55787;52.678;13.314;2022-11-25T02:17:46;53.50;;;17.45;;
68803;SDS011;55787;52.678;13.314;2022-11-25T02:20:15;53.13;;;17.35;;
68803;SDS011;55787;52.678;13.314;2022-11-25T02:22:51;54.30;;;17.63;;
68803;SDS011;55787;52.678;13.314;2022-11-25T02:27:51;49.53;;;17.13;;
68803;SDS011;55787;52.678;13.314;2022-11-25T02:30:21;46.05;;;16.90;;
68803;SDS011;55787;52.678;13.314;2022-11-25T02:32:48;49.80;;;17.20;;
68803;SDS011;55787;52.678;13.314;2022-11-25T02:37:55;50.00;;;15.57;;
68803;SDS011;55787;52.678;13.314;2022-11-25T02:40:57;51.45;;;16.27;;
68803;SDS011;55787;52.678;13.314;2022-11-25T02:43:31;56.65;;;17.55;;
68803;SDS011;55787;52.678;13.314;2022-11-25T02:48:26;58.08;;;18.40;;
68803;SDS011;55787;52.678;13.314;2022-11-25T02:51:15;63.57;;;17.60;;
68803;SDS011;55787;52.678;13.314;2022-11-25T02:53:43;60.63;;;17.55;;
68803;SDS011;55787;52.678;13.314;2022-11-25T02:56:10;57.22;;;17.83;;
68803;SDS011;55787;52.678;13.314;2022-11-25T02:58:38;58.80;;;18.15;;
68803;SDS011;55787;52.678;13.314;2022-11-25T03:01:05;60.58;;;17.92;;
68803;SDS011;55787;52.678;13.314;2022-11-25T03:03:32;59.97;;;18.43;;
68803;SDS011;55787;52.678;13.314;2022-11-25T03:05:58;64.15;;;20.02;;
68803;SDS011;55787;52.678;13.314;2022-11-25T03:08:25;72.90;;;20.25;;
68803;SDS011;55787;52.678;13.314;2022-11-25T03:10:51;56.50;;;19.90;;
68803;SDS011;55787;52.678;13.314;2022-11-25T03:13:18;66.35;;;20.40;;
68803;SDS011;55787;52.678;13.314;2022-11-25T03:15:45;66.40;;;18.90;;
68803;SDS011;55787;52.678;13.314;2022-11-25T03:18:12;61.33;;;19.88;;
68803;SDS011;55787;52.678;13.314;2022-11-25T03:20:40;57.95;;;19.77;;
68803;SDS011;55787;52.678;13.314;2022-11-25T03:23:06;57.70;;;19.42;;
68803;SDS011;55787;52.678;13.314;2022-11-25T03:25:33;55.70;;;18.30;;
68803;SDS011;55787;52.678;13.314;2022-11-25T03:28:00;61.63;;;20.47;;
68803;SDS011;55787;52.678;13.314;2022-11-25T03:30:27;58.80;;;19.70;;
68803;SDS011;55787;52.678;13.314;2022-11-25T03:32:55;60.83;;;20.27;;
68803;SDS011;55787;52.678;13.314;2022-11-25T03:35:21;55.13;;;19.10;;
68803;SDS011;55787;52.678;13.314;2022-11-25T03:37:48;54.42;;;19.58;;
68803;SDS011;55787;52.678;13.314;2022-11-25T03:40:15;52.10;;;18.37;;
68803;SDS011;55787;52.678;13.314;2022-11-25T03:42:42;60.03;;;20.02;;
68803;SDS011;55787;52.678;13.314;2022-11-25T03:45:10;56.63;;;19.25;;
68803;SDS011;55787;52.678;13.314;2022-11-25T03:47:39;57.28;;;19.35;;
68803;SDS011;55787;52.678;13.314;2022-11-25T03:50:10;54.58;;;19.55;;
68803;SDS011;55787;52.678;13.314;2022-11-25T03:52:39;53.47;;;19.10;;
68803;SDS011;55787;52.678;13.314;2022-11-25T03:55:06;61.88;;;19.42;;
68803;SDS011;55787;52.678;13.314;2022-11-25T03:57:34;50.42;;;18.33;;
68803;SDS011;55787;52.678;13.314;2022-11-25T04:00:01;54.72;;;19.00;;
68803;SDS011;55787;52.678;13.314;2022-11-25T04:02:28;52.40;;;18.80;;
68803;SDS011;55787;52.678;13.314;2022-11-25T04:04:55;50.07;;;18.37;;
68803;SDS011;55787;52.678;13.314;2022-11-25T04:07:21;59.22;;;19.63;;
68803;SDS011;55787;52.678;13.314;2022-11-25T04:09:48;52.13;;;19.08;;
68803;SDS011;55787;52.678;13.314;2022-11-25T04:12:14;55.38;;;18.45;;
68803;SDS011;55787;52.678;13.314;2022-11-25T04:14:59;56.95;;;19.13;;
68803;SDS011;55787;52.678;13.314;2022-11-25T04:17:26;52.80;;;18.13;;
68803;SDS011;55787;52.678;13.314;2022-11-25T04:19:53;52.88;;;19.08;;
68803;SDS011;55787;52.678;13.314;2022-11-25T04:22:19;51.45;;;18.60;;
68803;SDS011;55787;52.678;13.314;2022-11-25T04:24:46;59.72;;;18.95;;
68803;SDS011;55787;52.678;13.314;2022-11-25T04:27:12;62.53;;;20.08;;
68803;SDS011;55787;52.678;13.314;2022-11-25T04:29:39;58.60;;;19.27;;
68803;SDS011;55787;52.678;13.314;2022-11-25T04:32:05;52.95;;;19.13;;
68803;SDS011;55787;52.678;13.314;2022-11-25T04:34:32;58.70;;;19.23;;
68803;SDS011;55787;52.678;13.314;2022-11-25T04:36:59;61.38;;;18.13;;
68803;SDS011;55787;52.678;13.314;2022-11-25T04:39:26;55.80;;;18.02;;
68803;SDS011;55787;52.678;13.314;2022-11-25T04:41:52;53.87;;;17.73;;
68803;SDS011;55787;52.678;13.314;2022-11-25T04:44:39;56.80;;;19.23;;
68803;SDS011;55787;52.678;13.314;2022-11-25T04:47:05;57.60;;;19.52;;
68803;SDS011;55787;52.678;13.314;2022-11-25T04:49:32;57.33;;;18.52;;
68803;SDS011;55787;52.678;13.314;2022-11-25T04:51:59;62.95;;;19.85;;
68803;SDS011;55787;52.678;13.314;2022-11-25T04:54:26;58.50;;;19.53;;
68803;SDS011;55787;52.678;13.314;2022-11-25T04:56:53;52.65;;;17.95;;
68803;SDS011;55787;52.678;13.314;2022-11-25T04:59:19;58.75;;;19.63;;
68803;SDS011;55787;52.678;13.314;2022-11-25T05:02:17;55.95;;;18.73;;
68803;SDS011;55787;52.678;13.314;2022-11-25T05:04:47;57.90;;;19.27;;
68803;SDS011;55787;52.678;13.314;2022-11-25T05:07:15;52.40;;;18.03;;
68803;SDS011;55787;52.678;13.314;2022-11-25T05:09:43;56.28;;;18.30;;
68803;SDS011;55787;52.678;13.314;2022-11-25T05:12:11;52.15;;;18.13;;
68803;SDS011;55787;52.678;13.314;2022-11-25T05:14:40;61.85;;;19.52;;
68803;SDS011;55787;52.678;13.314;2022-11-25T05:17:09;58.38;;;18.73;;
68803;SDS011;55787;52.678;13.314;2022-11-25T05:19:41;56.73;;;18.27;;
68803;SDS011;55787;52.678;13.314;2022-11-25T05:22:11;56.15;;;18.13;;
68803;SDS011;55787;52.678;13.314;2022-11-25T05:24:38;56.30;;;18.17;;
68803;SDS011;55787;52.678;13.314;2022-11-25T05:27:05;58.95;;;18.60;;
68803;SDS011;55787;52.678;13.314;2022-11-25T05:29:32;57.00;;;17.98;;
68803;SDS011;55787;52.678;13.314;2022-11-25T05:31:58;54.63;;;17.60;;
68803;SDS011;55787;52.678;13.314;2022-11-25T05:34:25;56.60;;;17.77;;
68803;SDS011;55787;52.678;13.314;2022-11-25T05:36:52;60.17;;;18.95;;
68803;SDS011;55787;52.678;13.314;2022-11-25T05:39:19;58.65;;;17.92;;
68803;SDS011;55787;52.678;13.314;2022-11-25T05:41:46;55.58;;;18.00;;
68803;SDS011;55787;52.678;13.314;2022-11-25T05:44:12;58.70;;;18.00;;
68803;SDS011;55787;52.678;13.314;2022-11-25T05:46:46;64.40;;;18.77;;
68803;SDS011;55787;52.678;13.314;2022-11-25T05:49:14;59.17;;;18.90;;
68803;SDS011;55787;52.678;13.314;2022-11-25T05:51:42;51.90;;;17.52;;
68803;SDS011;55787;52.678;13.314;2022-11-25T05:54:08;54.35;;;17.98;;
68803;SDS011;55787;52.678;13.314;2022-11-25T05:56:35;65.40;;;18.27;;
68803;SDS011;55787;52.678;13.314;2022-11-25T05:59:02;55.67;;;18.20;;
68803;SDS011;55787;52.678;13.314;2022-11-25T06:01:29;57.40;;;17.10;;
68803;SDS011;55787;52.678;13.314;2022-11-25T06:04:02;60.00;;;18.67;;
68803;SDS011;55787;52.678;13.314;2022-11-25T06:06:29;54.85;;;18.98;;
68803;SDS011;55787;52.678;13.314;2022-11-25T06:08:57;57.20;;;18.10;;
68803;SDS011;55787;52.678;13.314;2022-11-25T06:11:24;60.30;;;18.27;;
68803;SDS011;55787;52.678;13.314;2022-11-25T06:13:51;63.20;;;18.92;;
68803;SDS011;55787;52.678;13.314;2022-11-25T06:16:19;57.90;;;17.80;;
68803;SDS011;55787;52.678;13.314;2022-11-25T06:18:48;54.55;;;17.88;;
68803;SDS011;55787;52.678;13.314;2022-11-25T06:21:15;62.37;;;19.03;;
68803;SDS011;55787;52.678;13.314;2022-11-25T06:23:42;50.78;;;17.85;;
68803;SDS011;55787;52.678;13.314;2022-11-25T06:26:14;59.92;;;18.05;;
68803;SDS011;55787;52.678;13.314;2022-11-25T06:28:43;63.58;;;17.83;;
68803;SDS011;55787;52.678;13.314;2022-11-25T06:31:12;67.65;;;18.80;;
68803;SDS011;55787;52.678;13.314;2022-11-25T06:33:46;69.93;;;17.47;;
68803;SDS011;55787;52.678;13.314;2022-11-25T06:36:14;75.38;;;17.75;;
68803;SDS011;55787;52.678;13.314;2022-11-25T06:38:49;73.00;;;17.80;;
68803;SDS011;55787;52.678;13.314;2022-11-25T06:41:18;96.07;;;18.02;;
68803;SDS011;55787;52.678;13.314;2022-11-25T06:43:45;89.95;;;18.25;;
68803;SDS011;55787;52.678;13.314;2022-11-25T06:46:13;176.20;;;19.27;;
68803;SDS011;55787;52.678;13.314;2022-11-25T06:48:48;133.05;;;18.15;;
68803;SDS011;55787;52.678;13.314;2022-11-25T06:51:15;155.52;;;20.00;;
68803;SDS011;55787;52.678;13.314;2022-11-25T06:53:42;136.65;;;18.63;;
68803;SDS011;55787;52.678;13.314;2022-11-25T06:56:12;163.43;;;19.75;;
68803;SDS011;55787;52.678;13.314;2022-11-25T06:58:42;140.57;;;20.67;;
68803;SDS011;55787;52.678;13.314;2022-11-25T07:01:11;135.40;;;19.17;;
68803;SDS011;55787;52.678;13.314;2022-11-25T07:03:40;148.40;;;19.10;;
68803;SDS011;55787;52.678;13.314;2022-11-25T07:06:08;149.25;;;17.73;;
68803;SDS011;55787;52.678;13.314;2022-11-25T07:08:35;155.48;;;19.95;;
68803;SDS011;55787;52.678;13.314;2022-11-25T07:11:06;128.57;;;17.83;;
68803;SDS011;55787;52.678;13.314;2022-11-25T07:13:35;219.73;;;21.70;;
68803;SDS011;55787;52.678;13.314;2022-11-25T07:16:03;154.15;;;16.85;;
68803;SDS011;55787;52.678;13.314;2022-11-25T07:18:31;189.07;;;17.45;;
68803;SDS011;55787;52.678;13.314;2022-11-25T07:21:07;172.38;;;17.55;;
68803;SDS011;55787;52.678;13.314;2022-11-25T07:23:38;101.93;;;15.37;;
68803;SDS011;55787;52.678;13.314;2022-11-25T07:26:09;149.48;;;16.50;;
68803;SDS011;55787;52.678;13.314;2022-11-25T07:28:38;81.70;;;14.50;;
68803;SDS011;55787;52.678;13.314;2022-11-25T07:31:15;120.38;;;15.13;;
68803;SDS011;55787;52.678;13.314;2022-11-25T07:33:58;135.35;;;16.23;;
68803;SDS011;55787;52.678;13.314;2022-11-25T07:36:27;116.90;;;14.83;;
68803;SDS011;55787;52.678;13.314;2022-11-25T07:38:59;114.18;;;15.80;;
68803;SDS011;55787;52.678;13.314;2022-11-25T07:41:29;120.78;;;16.13;;
68803;SDS011;55787;52.678;13.314;2022-11-25T07:43:57;114.20;;;15.70;;
68803;SDS011;55787;52.678;13.314;2022-11-25T07:46:27;81.43;;;16.35;;
68803;SDS011;55787;52.678;13.314;2022-11-25T07:49:03;112.63;;;17.30;;
68803;SDS011;55787;52.678;13.314;2022-11-25T07:51:33;123.50;;;17.58;;
68803;SDS011;55787;52.678;13.314;2022-11-25T07:54:02;121.00;;;17.67;;
68803;SDS011;55787;52.678;13.314;2022-11-25T07:56:32;84.93;;;16.83;;
68803;SDS011;55787;52.678;13.314;2022-11-25T07:59:00;120.28;;;17.77;;
68803;SDS011;55787;52.678;13.314;2022-11-25T08:01:27;95.97;;;16.73;;
68803;SDS011;55787;52.678;13.314;2022-11-25T08:03:54;106.30;;;16.75;;
68803;SDS011;55787;52.678;13.314;2022-11-25T08:06:25;89.35;;;15.98;;
68803;SDS011;55787;52.678;13.314;2022-11-25T08:08:54;102.35;;;17.02;;
68803;SDS011;55787;52.678;13.314;2022-11-25T08:11:27;77.35;;;16.20;;
68803;SDS011;55787;52.678;13.314;2022-11-25T08:13:55;94.87;;;16.93;;
68803;SDS011;55787;52.678;13.314;2022-11-25T08:16:23;94.32;;;17.20;;
68803;SDS011;55787;52.678;13.314;2022-11-25T08:19:00;96.82;;;16.88;;
68803;SDS011;55787;52.678;13.314;2022-11-25T08:21:28;83.55;;;16.00;;
68803;SDS011;55787;52.678;13.314;2022-11-25T08:23:55;98.85;;;17.00;;
68803;SDS011;55787;52.678;13.314;2022-11-25T08:26:26;83.73;;;15.70;;
68803;SDS011;55787;52.678;13.314;2022-11-25T08:28:55;106.72;;;17.00;;
68803;SDS011;55787;52.678;13.314;2022-11-25T08:31:56;94.93;;;16.58;;
68803;SDS011;55787;52.678;13.314;2022-11-25T08:34:17;115.35;;;16.77;;
68803;SDS011;55787;52.678;13.314;2022-11-25T08:36:46;79.15;;;16.02;;
68803;SDS011;55787;52.678;13.314;2022-11-25T08:39:14;109.40;;;16.83;;
68803;SDS011;55787;52.678;13.314;2022-11-25T08:42:02;77.80;;;14.05;;
68803;SDS011;55787;52.678;13.314;2022-11-25T08:44:29;74.95;;;15.07;;
68803;SDS011;55787;52.678;13.314;2022-11-25T08:46:56;89.78;;;16.25;;
68803;SDS011;55787;52.678;13.314;2022-11-25T08:49:23;85.38;;;15.82;;
68803;SDS011;55787;52.678;13.314;2022-11-25T08:51:52;69.50;;;14.47;;
68803;SDS011;55787;52.678;13.314;2022-11-25T08:54:18;91.53;;;15.68;;
68803;SDS011;55787;52.678;13.314;2022-11-25T08:56:45;100.63;;;15.68;;
68803;SDS011;55787;52.678;13.314;2022-11-25T08:59:11;86.97;;;16.20;;
68803;SDS011;55787;52.678;13.314;2022-11-25T09:01:38;86.78;;;16.73;;
68803;SDS011;55787;52.678;13.314;2022-11-25T09:04:05;58.50;;;15.07;;
68803;SDS011;55787;52.678;13.314;2022-11-25T09:06:32;57.75;;;14.70;;
68803;SDS011;55787;52.678;13.314;2022-11-25T09:08:58;78.95;;;15.93;;
68803;SDS011;55787;52.678;13.314;2022-11-25T09:11:27;97.10;;;16.67;;
68803;SDS011;55787;52.678;13.314;2022-11-25T09:13:54;98.50;;;15.73;;
68803;SDS011;55787;52.678;13.314;2022-11-25T09:16:20;76.40;;;15.63;;
68803;SDS011;55787;52.678;13.314;2022-11-25T09:18:47;67.72;;;16.30;;
68803;SDS011;55787;52.678;13.314;2022-11-25T09:21:21;62.08;;;15.52;;
68803;SDS011;55787;52.678;13.314;2022-11-25T09:23:50;54.10;;;15.10;;
68803;SDS011;55787;52.678;13.314;2022-11-25T09:26:21;65.00;;;14.85;;
68803;SDS011;55787;52.678;13.314;2022-11-25T09:28:50;62.87;;;14.10;;
68803;SDS011;55787;52.678;13.314;2022-11-25T09:31:17;70.97;;;15.43;;
68803;SDS011;55787;52.678;13.314;2022-11-25T09:33:44;90.43;;;15.77;;
68803;SDS011;55787;52.678;13.314;2022-11-25T09:36:12;66.43;;;15.35;;
68803;SDS011;55787;52.678;13.314;2022-11-25T09:38:41;67.40;;;15.95;;
68803;SDS011;55787;52.678;13.314;2022-11-25T09:41:16;60.60;;;14.83;;
68803;SDS011;55787;52.678;13.314;2022-11-25T09:44:36;54.25;;;15.10;;
68803;SDS011;55787;52.678;13.314;2022-11-25T09:56:11;59.70;;;14.20;;
68803;SDS011;55787;52.678;13.314;2022-11-25T09:58:50;49.40;;;15.30;;
68803;SDS011;55787;52.678;13.314;2022-11-25T10:01:22;57.20;;;14.02;;
68803;SDS011;55787;52.678;13.314;2022-11-25T10:03:55;51.50;;;14.73;;
68803;SDS011;55787;52.678;13.314;2022-11-25T10:06:28;59.38;;;14.43;;
68803;SDS011;55787;52.678;13.314;2022-11-25T10:08:58;57.73;;;15.23;;
68803;SDS011;55787;52.678;13.314;2022-11-25T10:14:15;84.68;;;13.55;;
68803;SDS011;55787;52.678;13.314;2022-11-25T10:22:16;46.77;;;13.83;;
68803;SDS011;55787;52.678;13.314;2022-11-25T10:24:48;64.10;;;13.52;;
68803;SDS011;55787;52.678;13.314;2022-11-25T10:27:18;52.33;;;13.20;;
68803;SDS011;55787;52.678;13.314;2022-11-25T10:29:54;45.47;;;13.02;;
68803;SDS011;55787;52.678;13.314;2022-11-25T10:32:32;48.40;;;13.38;;
68803;SDS011;55787;52.678;13.314;2022-11-25T10:35:13;47.70;;;12.50;;
68803;SDS011;55787;52.678;13.314;2022-11-25T10:37:46;57.13;;;13.30;;
68803;SDS011;55787;52.678;13.314;2022-11-25T10:40:15;39.97;;;12.88;;
68803;SDS011;55787;52.678;13.314;2022-11-25T10:42:43;38.63;;;13.40;;
68803;SDS011;55787;52.678;13.314;2022-11-25T10:45:10;33.50;;;12.82;;
68803;SDS011;55787;52.678;13.314;2022-11-25T10:55:46;39.72;;;14.25;;
68803;SDS011;55787;52.678;13.314;2022-11-25T10:58:31;35.50;;;13.13;;
68803;SDS011;55787;52.678;13.314;2022-11-25T11:01:00;35.83;;;13.70;;
68803;SDS011;55787;52.678;13.314;2022-11-25T11:03:32;38.85;;;13.23;;
68803;SDS011;55787;52.678;13.314;2022-11-25T11:05:59;35.45;;;13.38;;
68803;SDS011;55787;52.678;13.314;2022-11-25T11:08:44;37.88;;;13.50;;
68803;SDS011;55787;52.678;13.314;2022-11-25T11:13:38;34.10;;;13.63;;
68803;SDS011;55787;52.678;13.314;2022-11-25T11:16:19;39.42;;;13.50;;
68803;SDS011;55787;52.678;13.314;2022-11-25T11:18:56;37.03;;;13.63;;
68803;SDS011;55787;52.678;13.314;2022-11-25T11:23:56;39.78;;;14.25;;
68803;SDS011;55787;52.678;13.314;2022-11-25T11:29:00;40.40;;;14.23;;
68803;SDS011;55787;52.678;13.314;2022-11-25T11:31:29;37.83;;;13.90;;
68803;SDS011;55787;52.678;13.314;2022-11-25T11:43:01;39.20;;;14.43;;
68803;SDS011;55787;52.678;13.314;2022-11-25T11:48:25;38.10;;;14.98;;
68803;SDS011;55787;52.678;13.314;2022-11-25T11:56:48;43.30;;;16.30;;
68803;SDS011;55787;52.678;13.314;2022-11-25T11:59:42;44.17;;;15.77;;
68803;SDS011;55787;52.678;13.314;2022-11-25T12:05:12;46.90;;;17.33;;
68803;SDS011;55787;52.678;13.314;2022-11-25T12:07:48;47.37;;;17.77;;
68803;SDS011;55787;52.678;13.314;2022-11-25T12:10:30;44.72;;;17.33;;
68803;SDS011;55787;52.678;13.314;2022-11-25T12:13:44;44.38;;;17.33;;
68803;SDS011;55787;52.678;13.314;2022-11-25T12:32:28;47.13;;;15.35;;
68803;SDS011;55787;52.678;13.314;2022-11-25T12:37:51;43.95;;;15.40;;
68803;SDS011;55787;52.678;13.314;2022-11-25T12:43:01;48.22;;;14.68;;
68803;SDS011;55787;52.678;13.314;2022-11-25T12:45:59;42.95;;;15.38;;
68803;SDS011;55787;52.678;13.314;2022-11-25T12:48:32;42.27;;;16.17;;
68803;SDS011;55787;52.678;13.314;2022-11-25T12:51:15;41.20;;;15.52;;
68803;SDS011;55787;52.678;13.314;2022-11-25T12:53:58;39.03;;;15.98;;
68803;SDS011;55787;52.678;13.314;2022-11-25T12:57:02;41.08;;;15.35;;
68803;SDS011;55787;52.678;13.314;2022-11-25T13:16:40;45.60;;;15.10;;
68803;SDS011;55787;52.678;13.314;2022-11-25T13:19:14;44.00;;;16.02;;
68803;SDS011;55787;52.678;13.314;2022-11-25T13:24:55;43.28;;;15.88;;
68803;SDS011;55787;52.678;13.314;2022-11-25T13:30:03;39.67;;;15.43;;
68803;SDS011;55787;52.678;13.314;2022-11-25T13:32:35;41.45;;;15.15;;
68803;SDS011;55787;52.678;13.314;2022-11-25T13:35:48;36.13;;;14.65;;
68803;SDS011;55787;52.678;13.314;2022-11-25T13:37:56;42.28;;;15.15;;
68803;SDS011;55787;52.678;13.314;2022-11-25T13:42:55;44.30;;;16.53;;
68803;SDS011;55787;52.678;13.314;2022-11-25T13:45:29;40.95;;;15.80;;
68803;SDS011;55787;52.678;13.314;2022-11-25T13:48:11;44.17;;;16.27;;
68803;SDS011;55787;52.678;13.314;2022-11-25T13:50:38;40.03;;;15.52;;
68803;SDS011;55787;52.678;13.314;2022-11-25T13:53:27;41.00;;;15.13;;
68803;SDS011;55787;52.678;13.314;2022-11-25T14:01:40;39.83;;;14.77;;
68803;SDS011;55787;52.678;13.314;2022-11-25T14:04:53;40.13;;;14.35;;
68803;SDS011;55787;52.678;13.314;2022-11-25T14:10:16;44.90;;;14.93;;
68803;SDS011;55787;52.678;13.314;2022-11-25T14:18:30;47.80;;;15.68;;
68803;SDS011;55787;52.678;13.314;2022-11-25T14:24:42;43.20;;;15.47;;
68803;SDS011;55787;52.678;13.314;2022-11-25T14:29:51;53.83;;;15.50;;
68803;SDS011;55787;52.678;13.314;2022-11-25T14:32:22;46.60;;;15.63;;
68803;SDS011;55787;52.678;13.314;2022-11-25T14:35:38;46.97;;;15.45;;
68803;SDS011;55787;52.678;13.314;2022-11-25T14:40:29;45.53;;;14.88;;
68803;SDS011;55787;52.678;13.314;2022-11-25T14:43:04;49.03;;;16.13;;
68803;SDS011;55787;52.678;13.314;2022-11-25T14:48:41;46.40;;;14.55;;
68803;SDS011;55787;52.678;13.314;2022-11-25T14:51:09;46.40;;;15.33;;
68803;SDS011;55787;52.678;13.314;2022-11-25T14:53:40;51.03;;;15.15;;
68803;SDS011;55787;52.678;13.314;2022-11-25T14:56:14;47.00;;;15.30;;
68803;SDS011;55787;52.678;13.314;2022-11-25T14:59:02;43.70;;;15.02;;
68803;SDS011;55787;52.678;13.314;2022-11-25T15:01:29;51.40;;;14.98;;
68803;SDS011;55787;52.678;13.314;2022-11-25T15:06:48;52.50;;;16.13;;
68803;SDS011;55787;52.678;13.314;2022-11-25T15:12:03;49.85;;;16.83;;
68803;SDS011;55787;52.678;13.314;2022-11-25T15:14:34;47.30;;;15.93;;
68803;SDS011;55787;52.678;13.314;2022-11-25T15:17:07;47.57;;;15.47;;
68803;SDS011;55787;52.678;13.314;2022-11-25T15:19:43;50.60;;;15.38;;
68803;SDS011;55787;52.678;13.314;2022-11-25T15:22:10;57.10;;;15.02;;
68803;SDS011;55787;52.678;13.314;2022-11-25T15:24:50;57.10;;;15.07;;
68803;SDS011;55787;52.678;13.314;2022-11-25T15:27:44;48.70;;;14.10;;
68803;SDS011;55787;52.678;13.314;2022-11-25T15:30:19;45.27;;;14.07;;
68803;SDS011;55787;52.678;13.314;2022-11-25T15:32:47;42.95;;;13.05;;
68803;SDS011;55787;52.678;13.314;2022-11-25T15:35:19;46.60;;;13.80;;
68803;SDS011;55787;52.678;13.314;2022-11-25T15:37:48;59.63;;;16.73;;
68803;SDS011;55787;52.678;13.314;2022-11-25T15:40:34;56.90;;;14.35;;
68803;SDS011;55787;52.678;13.314;2022-11-25T15:43:24;52.47;;;15.03;;
68803;SDS011;55787;52.678;13.314;2022-11-25T15:45:56;49.33;;;14.75;;
68803;SDS011;55787;52.678;13.314;2022-11-25T15:48:31;59.25;;;15.35;;
68803;SDS011;55787;52.678;13.314;2022-11-25T15:51:06;47.58;;;14.50;;
68803;SDS011;55787;52.678;13.314;2022-11-25T15:54:00;49.28;;;14.20;;
68803;SDS011;55787;52.678;13.314;2022-11-25T15:56:31;44.17;;;14.20;;
68803;SDS011;55787;52.678;13.314;2022-11-25T15:59:01;53.17;;;13.80;;
68803;SDS011;55787;52.678;13.314;2022-11-25T16:01:28;52.25;;;15.10;;
68803;SDS011;55787;52.678;13.314;2022-11-25T16:04:08;43.08;;;14.07;;
68803;SDS011;55787;52.678;13.314;2022-11-25T16:06:51;56.42;;;14.68;;
68803;SDS011;55787;52.678;13.314;2022-11-25T16:09:22;40.27;;;13.33;;
68803;SDS011;55787;52.678;13.314;2022-11-25T16:11:50;37.58;;;12.30;;
68803;SDS011;55787;52.678;13.314;2022-11-25T16:14:22;42.33;;;13.20;;
68803;SDS011;55787;52.678;13.314;2022-11-25T16:16:58;47.15;;;13.88;;
68803;SDS011;55787;52.678;13.314;2022-11-25T16:19:49;46.53;;;13.88;;
68803;SDS011;55787;52.678;13.314;2022-11-25T16:22:15;42.43;;;13.53;;
68803;SDS011;55787;52.678;13.314;2022-11-25T16:24:48;44.58;;;14.05;;
68803;SDS011;55787;52.678;13.314;2022-11-25T16:27:22;46.45;;;14.63;;
68803;SDS011;55787;52.678;13.314;2022-11-25T16:32:21;52.03;;;14.57;;
68803;SDS011;55787;52.678;13.314;2022-11-25T16:34:50;48.50;;;14.17;;
68803;SDS011;55787;52.678;13.314;2022-11-25T16:37:17;56.63;;;15.45;;
68803;SDS011;55787;52.678;13.314;2022-11-25T16:39:44;51.05;;;14.57;;
68803;SDS011;55787;52.678;13.314;2022-11-25T16:42:20;56.70;;;15.32;;
68803;SDS011;55787;52.678;13.314;2022-11-25T16:44:48;53.63;;;15.93;;
68803;SDS011;55787;52.678;13.314;2022-11-25T16:47:17;45.53;;;15.27;;
68803;SDS011;55787;52.678;13.314;2022-11-25T16:49:45;54.70;;;17.35;;
68803;SDS011;55787;52.678;13.314;2022-11-25T16:52:12;53.78;;;16.90;;
68803;SDS011;55787;52.678;13.314;2022-11-25T16:54:39;53.00;;;17.23;;
68803;SDS011;55787;52.678;13.314;2022-11-25T16:57:08;55.00;;;15.57;;
68803;SDS011;55787;52.678;13.314;2022-11-25T16:59:41;56.30;;;15.80;;